Time;durP1;ratioP1;P1;durP2;ratioP2;P2;SDS_P1;SDS_P2;PMS_P1;PMS_P2;Temp;Humidity;BMP_temperature;BMP_pressure;BME280_temperature;BME280_humidity;BME280_pressure;Samples;Min_cycle;Max_cycle;Signal;HPM_P1;HPM_P2
2021/11/11 00:01:07;;;;;;;43.97;23.63;;;;;;;;;;4923265;29;20041;-96
2021/11/11 00:03:46;;;;;;;47.50;23.67;;;;;;;;;;4923088;29;20117;-96
2021/11/11 00:06:27;;;;;;;38.38;22.50;;;;;;;;;;4922444;29;20024;-96
2021/11/11 00:09:08;;;;;;;46.47;21.88;;;;;;;;;;4919338;29;20059;-95
2021/11/11 00:11:37;;;;;;;54.45;22.52;;;;;;;;;;4923050;29;20073;-96
2021/11/11 00:14:06;;;;;;;47.35;24.25;;;;;;;;;;4922904;29;20040;-96
2021/11/11 00:16:37;;;;;;;48.80;23.30;;;;;;;;;;4922917;29;20068;-96
2021/11/11 00:19:15;;;;;;;45.38;22.65;;;;;;;;;;4923031;29;20129;-95
2021/11/11 00:21:47;;;;;;;49.33;23.73;;;;;;;;;;4923380;29;20040;-96
2021/11/11 00:24:28;;;;;;;45.63;23.52;;;;;;;;;;4921909;29;20033;-96
2021/11/11 00:26:56;;;;;;;44.08;23.48;;;;;;;;;;4922653;29;20060;-95
2021/11/11 00:29:25;;;;;;;46.60;23.35;;;;;;;;;;4922661;29;20116;-95
2021/11/11 00:31:54;;;;;;;43.10;23.80;;;;;;;;;;4922656;29;20067;-95
2021/11/11 00:34:31;;;;;;;45.42;23.80;;;;;;;;;;4922742;29;20037;-96
2021/11/11 00:37:16;;;;;;;46.78;23.25;;;;;;;;;;4921624;29;20064;-96
2021/11/11 00:39:59;;;;;;;40.20;22.77;;;;;;;;;;4922681;29;20096;-96
2021/11/11 00:42:40;;;;;;;42.35;23.05;;;;;;;;;;4919379;29;20036;-95
2021/11/11 00:45:21;;;;;;;47.97;23.10;;;;;;;;;;4921862;29;20024;-96
2021/11/11 00:48:06;;;;;;;43.90;22.63;;;;;;;;;;4922413;29;20069;-96
2021/11/11 00:50:35;;;;;;;42.70;22.95;;;;;;;;;;4922522;29;20040;-96
2021/11/11 00:53:05;;;;;;;50.35;24.52;;;;;;;;;;4922363;29;20063;-96
2021/11/11 00:55:49;;;;;;;43.80;23.77;;;;;;;;;;4922776;29;20042;-96
2021/11/11 00:58:21;;;;;;;48.03;22.75;;;;;;;;;;4922350;29;20101;-96
2021/11/11 01:00:49;;;;;;;47.67;24.42;;;;;;;;;;4922217;29;20112;-95
2021/11/11 01:03:51;;;;;;;51.20;21.27;;;;;;;;;;4921362;29;20099;-95
2021/11/11 01:06:30;;;;;;;41.53;22.17;;;;;;;;;;4922495;29;20036;-95
2021/11/11 01:08:58;;;;;;;47.58;24.25;;;;;;;;;;4922123;29;20598;-96
2021/11/11 01:11:39;;;;;;;45.17;23.55;;;;;;;;;;4922235;29;20067;-96
2021/11/11 01:14:14;;;;;;;37.42;21.00;;;;;;;;;;4922219;29;20097;-96
2021/11/11 01:16:46;;;;;;;40.47;22.35;;;;;;;;;;4922713;29;20052;-95
2021/11/11 01:19:25;;;;;;;40.90;21.98;;;;;;;;;;4922190;29;20064;-96
2021/11/11 01:21:57;;;;;;;42.92;21.02;;;;;;;;;;4922111;29;20053;-95
2021/11/11 01:24:28;;;;;;;46.20;22.08;;;;;;;;;;4922034;29;20073;-95
2021/11/11 01:27:02;;;;;;;39.35;22.02;;;;;;;;;;4922331;29;20037;-96
2021/11/11 01:29:43;;;;;;;36.40;20.83;;;;;;;;;;4921846;29;20064;-95
2021/11/11 01:32:23;;;;;;;44.40;21.00;;;;;;;;;;4921953;29;20053;-96
2021/11/11 01:34:53;;;;;;;43.72;21.23;;;;;;;;;;4921937;29;20051;-96
2021/11/11 01:37:20;;;;;;;40.38;21.88;;;;;;;;;;4921935;29;20045;-96
2021/11/11 01:39:55;;;;;;;39.80;20.90;;;;;;;;;;4922024;29;20044;-96
2021/11/11 01:42:25;;;;;;;41.88;21.48;;;;;;;;;;4921900;29;20041;-96
2021/11/11 01:44:55;;;;;;;38.08;21.33;;;;;;;;;;4922021;29;20061;-95
2021/11/11 01:47:22;;;;;;;40.80;22.05;;;;;;;;;;4921900;29;20059;-96
2021/11/11 01:49:52;;;;;;;41.25;21.65;;;;;;;;;;4921901;29;20045;-95
2021/11/11 01:52:33;;;;;;;34.38;20.27;;;;;;;;;;4923145;29;20043;-96
2021/11/11 01:55:14;;;;;;;41.53;22.38;;;;;;;;;;4924547;29;20049;-96
2021/11/11 01:57:47;;;;;;;48.00;22.20;;;;;;;;;;4925497;29;20100;-96
2021/11/11 02:00:18;;;;;;;42.67;21.95;;;;;;;;;;4928763;29;20107;-96
2021/11/11 02:03:00;;;;;;;41.55;23.48;;;;;;;;;;4930368;29;20036;-96
2021/11/11 02:05:45;;;;;;;41.60;22.52;;;;;;;;;;4929715;29;20056;-96
2021/11/11 02:08:28;;;;;;;47.40;22.67;;;;;;;;;;4942251;29;20032;-96
2021/11/11 09:28:45;;;;;;;23.85;12.57;;;;;;;;;;4952535;23;20052;-95
2021/11/11 09:31:27;;;;;;;26.33;13.38;;;;;;;;;;4922669;29;20037;-94
2021/11/11 09:34:32;;;;;;;21.92;13.35;;;;;;;;;;4921263;29;20027;-95
2021/11/11 09:37:33;;;;;;;26.95;14.25;;;;;;;;;;4908679;29;20104;-96
2021/11/11 09:40:21;;;;;;;28.15;13.00;;;;;;;;;;4922511;29;20097;-95
2021/11/11 09:43:04;;;;;;;23.17;12.75;;;;;;;;;;4871783;29;20081;-96
2021/11/11 09:45:49;;;;;;;26.92;13.38;;;;;;;;;;4883402;29;20045;-94
2021/11/11 09:48:17;;;;;;;23.70;14.20;;;;;;;;;;4868560;29;20042;-95
2021/11/11 09:50:58;;;;;;;28.35;13.40;;;;;;;;;;4882763;29;20041;-94
2021/11/11 10:26:21;;;;;;;22.45;13.68;;;;;;;;;;5332507;23;20449;-94
2021/11/11 10:29:05;;;;;;;26.08;13.70;;;;;;;;;;4929386;29;20040;-96
2021/11/11 10:38:56;;;;;;;27.08;12.00;;;;;;;;;;5492044;23;20088;-94
2021/11/11 10:41:50;;;;;;;21.85;12.57;;;;;;;;;;4910051;29;20024;-95
2021/11/11 10:44:33;;;;;;;29.33;13.90;;;;;;;;;;4924067;29;20081;-95
2021/11/11 10:47:18;;;;;;;24.33;12.23;;;;;;;;;;4896130;29;20084;-95
2021/11/11 11:03:13;;;;;;;28.27;15.20;;;;;;;;;;5290807;23;20050;-94
2021/11/11 11:05:59;;;;;;;31.42;13.70;;;;;;;;;;4943981;29;20055;-93
2021/11/11 22:34:33;;;;;;;108.75;44.97;;;;;;;;;;4888040;29;20029;-96
2021/11/11 22:37:17;;;;;;;96.40;43.08;;;;;;;;;;4886303;29;20121;-95
2021/11/11 22:39:57;;;;;;;109.43;45.45;;;;;;;;;;4871132;29;20037;-94
2021/11/11 22:42:38;;;;;;;103.00;46.13;;;;;;;;;;4873322;29;20038;-96
2021/11/11 22:45:18;;;;;;;105.82;43.42;;;;;;;;;;4873264;29;20045;-95
2021/11/11 22:47:59;;;;;;;115.32;47.95;;;;;;;;;;4873682;29;20034;-95
2021/11/11 22:50:37;;;;;;;111.20;46.60;;;;;;;;;;4873228;29;20049;-95
2021/11/11 22:53:39;;;;;;;113.35;47.00;;;;;;;;;;4887009;29;20038;-95
2021/11/11 22:59:10;;;;;;;111.30;48.83;;;;;;;;;;4887287;29;20085;-95
2021/11/11 23:01:59;;;;;;;105.03;48.38;;;;;;;;;;4887214;29;20042;-95
